Time;durP1;ratioP1;P1;durP2;ratioP2;P2;SDS_P1;SDS_P2;PMS_P1;PMS_P2;Temp;Humidity;BMP_temperature;BMP_pressure;BME280_temperature;BME280_humidity;BME280_pressure;Samples;Min_cycle;Max_cycle;Signal;HPM_P1;HPM_P2
2021/05/08 00:00:19;;;;;;;8.45;4.75;;;;;;;10.01;100.00;97717.11;1719006;82;21156;-55
2021/05/08 00:02:49;;;;;;;7.92;4.47;;;;;;;10.00;100.00;97714.72;1719400;83;21568;-55
2021/05/08 00:05:18;;;;;;;8.43;4.75;;;;;;;9.97;100.00;97712.02;1719178;82;21749;-56
2021/05/08 00:07:49;;;;;;;8.28;4.47;;;;;;;9.96;100.00;97711.73;1719130;82;21624;-56
2021/05/08 00:10:18;;;;;;;6.72;4.25;;;;;;;9.95;100.00;97712.77;1719187;82;21208;-54
2021/05/08 00:12:48;;;;;;;10.55;4.35;;;;;;;9.93;100.00;97712.22;1719095;82;21195;-55
2021/05/08 00:15:17;;;;;;;9.30;4.22;;;;;;;9.92;100.00;97726.91;1718974;83;21588;-55
2021/05/08 00:17:46;;;;;;;9.75;3.85;;;;;;;9.91;100.00;97742.41;1718991;83;21137;-56
2021/05/08 00:20:17;;;;;;;4.75;3.47;;;;;;;9.90;100.00;97745.56;1718937;82;21179;-55
2021/05/08 00:22:46;;;;;;;5.97;3.52;;;;;;;9.89;100.00;97743.97;1719195;82;21372;-56
2021/05/08 00:25:15;;;;;;;6.42;3.50;;;;;;;9.89;99.56;97733.96;1718904;82;21188;-55
2021/05/08 00:27:45;;;;;;;5.85;3.25;;;;;;;9.86;99.19;97727.31;1719229;82;21144;-55
2021/05/08 00:30:17;;;;;;;7.67;3.50;;;;;;;9.84;99.01;97735.96;1719291;83;21183;-54
2021/05/08 00:32:46;;;;;;;5.42;3.60;;;;;;;9.84;99.02;97745.17;1719103;82;21398;-56
2021/05/08 00:35:16;;;;;;;5.62;3.27;;;;;;;9.83;99.17;97747.01;1719212;82;21314;-56
2021/05/08 00:37:45;;;;;;;5.95;3.42;;;;;;;9.84;98.99;97749.92;1719186;82;21235;-57
2021/05/08 00:40:15;;;;;;;5.67;3.27;;;;;;;9.83;99.03;97748.84;1718921;82;21148;-56
2021/05/08 00:42:45;;;;;;;5.00;3.62;;;;;;;9.83;99.25;97740.94;1719008;82;21155;-55
2021/05/08 00:45:15;;;;;;;5.87;3.40;;;;;;;9.81;99.39;97749.08;1719314;82;21121;-55
2021/05/08 00:47:48;;;;;;;4.83;3.70;;;;;;;9.81;99.64;97757.48;1719274;82;21124;-54
2021/05/08 00:50:19;;;;;;;4.90;3.65;;;;;;;9.79;99.67;97744.53;1719071;82;21152;-56
2021/05/08 00:52:49;;;;;;;8.40;3.80;;;;;;;9.78;99.85;97750.04;1719338;82;21739;-56
2021/05/08 00:55:18;;;;;;;9.98;4.20;;;;;;;9.76;100.00;97742.38;1711015;82;21640;-56
2021/05/08 00:57:50;;;;;;;;;;;;;;;9.75;100.00;97751.31;1721451;82;21168;-56
2021/05/08 01:00:21;;;;;;;7.35;3.92;;;;;;;9.74;100.00;97744.42;1719263;82;20413;-55
2021/05/08 01:02:50;;;;;;;;;;;;;;;9.72;100.00;97737.80;1713302;82;21176;-55
2021/05/08 01:05:20;;;;;;;6.78;4.22;;;;;;;9.71;100.00;97741.46;1718965;82;20162;-56
2021/05/08 01:07:50;;;;;;;6.43;4.10;;;;;;;9.68;100.00;97739.28;1719545;82;21580;-56
2021/05/08 01:10:20;;;;;;;7.53;4.30;;;;;;;9.67;100.00;97743.74;1718924;82;21163;-58
2021/05/08 01:12:50;;;;;;;6.90;4.40;;;;;;;9.65;100.00;97743.18;1719474;82;21160;-58
2021/05/08 01:15:20;;;;;;;9.80;4.12;;;;;;;9.62;100.00;97748.88;1712824;82;21136;-56
2021/05/08 01:17:50;;;;;;;9.78;4.87;;;;;;;9.59;100.00;97755.94;1729204;83;21139;-55
2021/05/08 01:20:20;;;;;;;6.35;4.12;;;;;;;9.56;100.00;97761.12;1712938;82;21200;-56
2021/05/08 01:22:50;;;;;;;8.20;4.60;;;;;;;9.56;100.00;97762.44;1729110;83;21140;-55
2021/05/08 01:25:23;;;;;;;6.70;4.25;;;;;;;9.55;100.00;97767.41;1729021;82;21163;-56
2021/05/08 01:27:55;;;;;;;7.83;4.42;;;;;;;9.56;100.00;97773.47;1728899;82;21230;-56
2021/05/08 01:30:30;;;;;;;11.95;4.20;;;;;;;9.55;100.00;97772.67;1728862;82;21132;-57
2021/05/08 01:33:00;;;;;;;10.63;4.60;;;;;;;9.53;100.00;97771.31;1728881;82;21183;-56
2021/05/08 01:35:30;;;;;;;6.92;4.60;;;;;;;9.48;100.00;97774.62;1728864;82;21171;-55
2021/05/08 01:38:00;;;;;;;7.65;4.80;;;;;;;9.44;100.00;97772.14;1729026;82;21286;-55
2021/05/08 01:40:33;;;;;;;8.93;4.90;;;;;;;9.41;100.00;97771.30;1728992;82;21159;-56
2021/05/08 01:43:03;;;;;;;8.35;5.50;;;;;;;9.38;100.00;97780.94;1712626;83;21192;-57
2021/05/08 01:45:32;;;;;;;8.00;5.47;;;;;;;9.33;100.00;97782.13;1712883;83;21591;-56
2021/05/08 01:48:04;;;;;;;;;;;;;;;9.28;100.00;97768.84;1731574;82;21599;-55
2021/05/08 01:50:34;;;;;;;12.03;5.53;;;;;;;9.24;100.00;97775.09;1729127;82;20413;-56
2021/05/08 01:53:03;;;;;;;9.43;6.12;;;;;;;9.20;100.00;97784.45;1729180;82;21179;-57
2021/05/08 01:55:33;;;;;;;10.63;6.25;;;;;;;9.18;100.00;97786.52;1729070;81;21170;-55
2021/05/08 01:58:06;;;;;;;11.57;6.62;;;;;;;9.13;100.00;97785.06;1729122;81;21160;-58
2021/05/08 02:00:41;;;;;;;;;;;;;;;9.08;100.00;97785.45;1731761;81;21127;-56
2021/05/08 02:03:11;;;;;;;11.15;7.10;;;;;;;9.06;100.00;97805.39;1729221;82;20245;-58
2021/05/08 02:05:47;;;;;;;12.55;7.47;;;;;;;9.05;100.00;97805.08;1729263;82;21171;-58
2021/05/08 02:08:25;;;;;;;14.85;8.58;;;;;;;9.09;100.00;97795.73;1820169;79;23089;-56
2021/05/08 02:10:56;;;;;;;;;;;;;;;9.03;100.00;97801.88;1796127;80;21190;-57
2021/05/08 02:13:25;;;;;;;16.80;10.00;;;;;;;9.01;100.00;97798.17;1793422;80;20119;-57
2021/05/08 02:15:55;;;;;;;15.15;9.13;;;;;;;8.98;100.00;97797.80;1793635;80;21189;-55
2021/05/08 02:18:25;;;;;;;17.85;10.00;;;;;;;8.96;100.00;97813.00;1793451;80;21154;-57
2021/05/08 02:20:54;;;;;;;17.62;10.10;;;;;;;8.96;100.00;97807.23;1793484;80;21177;-56
2021/05/08 02:23:24;;;;;;;16.77;10.15;;;;;;;8.94;100.00;97805.32;1793636;80;21177;-56
2021/05/08 02:25:54;;;;;;;18.45;11.15;;;;;;;8.94;100.00;97820.29;1793405;80;21177;-58
2021/05/08 02:28:24;;;;;;;22.05;11.95;;;;;;;8.92;100.00;97828.41;1763955;80;21150;-56
2021/05/08 02:30:54;;;;;;;18.40;10.90;;;;;;;8.91;100.00;97823.38;1793408;80;21307;-57
2021/05/08 02:33:28;;;;;;;19.25;11.50;;;;;;;8.90;100.00;97834.41;1793348;80;21295;-56
2021/05/08 02:35:58;;;;;;;19.17;11.85;;;;;;;8.89;100.00;97842.00;1793380;80;21169;-57
2021/05/08 02:38:27;;;;;;;18.90;11.00;;;;;;;8.90;100.00;97847.55;1752140;81;21177;-54
2021/05/08 02:40:57;;;;;;;20.57;11.90;;;;;;;8.92;100.00;97859.14;1762433;81;21575;-57
2021/05/08 02:43:26;;;;;;;19.37;11.88;;;;;;;8.89;100.00;97846.43;1757446;81;21566;-54
2021/05/08 02:46:13;;;;;;;18.98;11.93;;;;;;;8.87;100.00;97857.17;1762233;81;21288;-58
2021/05/08 02:48:43;;;;;;;19.27;12.23;;;;;;;8.82;100.00;97854.41;1762232;81;21196;-56
2021/05/08 02:51:14;;;;;;;19.67;11.33;;;;;;;8.77;100.00;97858.20;1762204;81;21574;-57
2021/05/08 02:53:44;;;;;;;19.20;10.82;;;;;;;8.74;98.97;97884.93;1762481;81;21127;-56
2021/05/08 02:56:14;;;;;;;21.05;11.75;;;;;;;8.72;99.21;97885.67;1762041;81;21197;-56
2021/05/08 02:58:46;;;;;;;18.37;11.05;;;;;;;8.67;99.86;97885.00;1762080;81;21589;-57
2021/05/08 03:01:15;;;;;;;19.80;11.50;;;;;;;8.67;97.43;97885.52;1762103;81;21165;-56
2021/05/08 03:03:45;;;;;;;17.32;11.00;;;;;;;8.66;95.70;97881.26;1762690;81;21169;-57
2021/05/08 03:06:15;;;;;;;18.70;11.40;;;;;;;8.63;95.32;97872.01;1757458;81;21173;-56
2021/05/08 03:08:45;;;;;;;18.57;11.18;;;;;;;8.60;95.47;97873.77;1749079;81;21320;-56
2021/05/08 03:11:15;;;;;;;11.22;7.08;;;;;;;8.55;97.01;97874.14;1749164;82;21550;-56
2021/05/08 03:13:48;;;;;;;9.20;6.15;;;;;;;8.48;92.54;97878.12;1728201;82;21217;-56
2021/05/08 03:16:18;;;;;;;9.68;5.92;;;;;;;8.27;87.83;97878.01;1728399;82;21625;-56
2021/05/08 03:18:48;;;;;;;8.95;5.72;;;;;;;8.01;88.70;97888.22;1749014;82;21207;-57
2021/05/08 03:21:18;;;;;;;7.67;5.45;;;;;;;7.82;89.64;97911.48;1748670;82;21185;-56
2021/05/08 03:23:48;;;;;;;10.15;5.47;;;;;;;7.63;90.71;97926.34;1748608;82;21585;-57
2021/05/08 03:26:18;;;;;;;9.40;5.60;;;;;;;7.45;91.91;97921.78;1748424;82;21201;-56
2021/05/08 03:28:48;;;;;;;9.68;5.85;;;;;;;7.32;92.96;97920.55;1748980;82;21142;-56
2021/05/08 03:31:18;;;;;;;10.13;5.70;;;;;;;7.19;93.30;97956.81;1727552;82;21182;-56
2021/05/08 03:33:47;;;;;;;9.08;5.60;;;;;;;7.06;94.71;97934.59;1727532;82;21174;-57
2021/05/08 03:36:17;;;;;;;8.43;5.60;;;;;;;6.98;94.91;97958.39;1748439;82;21181;-58
2021/05/08 03:38:46;;;;;;;7.67;5.37;;;;;;;6.90;96.22;97964.66;1748433;81;21203;-57
2021/05/08 03:41:16;;;;;;;8.90;5.40;;;;;;;6.81;96.88;97962.76;1748697;82;21186;-56
2021/05/08 03:43:45;;;;;;;8.78;5.95;;;;;;;6.74;98.26;97980.31;1748518;82;21174;-56
2021/05/08 03:46:15;;;;;;;9.33;5.90;;;;;;;6.71;98.93;97973.35;1748419;82;21169;-57
2021/05/08 03:48:46;;;;;;;9.90;5.80;;;;;;;6.69;99.86;97989.78;1748695;82;21316;-57
2021/05/08 03:51:15;;;;;;;10.08;5.97;;;;;;;6.67;100.00;97981.34;1748780;82;21158;-56
2021/05/08 03:53:45;;;;;;;10.00;5.55;;;;;;;6.67;100.00;98003.09;1748616;82;21138;-62
2021/05/08 03:56:14;;;;;;;12.05;6.58;;;;;;;6.66;100.00;98004.11;1748438;82;21170;-59
2021/05/08 03:58:44;;;;;;;12.85;6.50;;;;;;;6.65;100.00;98016.88;1748814;82;21197;-55
2021/05/08 04:01:14;;;;;;;10.53;6.30;;;;;;;6.64;100.00;98020.00;1748715;82;21185;-57
2021/05/08 04:03:43;;;;;;;11.50;7.12;;;;;;;6.64;100.00;98013.45;1748355;82;21164;-58
2021/05/08 04:06:12;;;;;;;12.43;7.03;;;;;;;6.64;100.00;98031.78;1748629;82;21162;-56
2021/05/08 04:08:43;;;;;;;12.00;7.10;;;;;;;6.64;100.00;98025.75;1748604;82;21566;-57
2021/05/08 04:11:13;;;;;;;11.95;7.10;;;;;;;6.67;100.00;98033.72;1748470;82;21221;-56
2021/05/08 04:13:42;;;;;;;10.82;7.22;;;;;;;6.67;100.00;98040.27;1748509;82;21138;-56
2021/05/08 04:16:12;;;;;;;10.75;7.08;;;;;;;6.69;100.00;98047.41;1748538;82;21142;-57
2021/05/08 04:18:43;;;;;;;10.90;6.60;;;;;;;6.70;100.00;98046.39;1748972;82;21177;-57
2021/05/08 04:21:13;;;;;;;9.70;6.20;;;;;;;6.70;100.00;98054.25;1748526;82;21161;-56
2021/05/08 04:23:42;;;;;;;12.15;6.28;;;;;;;6.64;100.00;98028.36;1748471;82;21174;-55
2021/05/08 04:26:12;;;;;;;9.03;6.35;;;;;;;6.57;100.00;98038.04;1748738;82;21194;-57
2021/05/08 04:28:41;;;;;;;11.28;6.50;;;;;;;6.53;100.00;98052.03;1748765;82;21210;-56
2021/05/08 04:31:10;;;;;;;12.33;7.20;;;;;;;6.50;100.00;98054.27;1748494;82;21130;-56
2021/05/08 04:33:39;;;;;;;12.05;7.15;;;;;;;6.45;100.00;98037.84;1748868;82;21166;-56
2021/05/08 04:36:09;;;;;;;11.33;5.80;;;;;;;6.44;100.00;98052.45;1748642;82;21300;-55
2021/05/08 04:38:40;;;;;;;11.22;6.25;;;;;;;6.43;100.00;98049.53;1748629;81;21174;-55
2021/05/08 04:41:10;;;;;;;8.63;5.58;;;;;;;6.44;100.00;98053.76;1748779;82;21146;-57
2021/05/08 04:43:42;;;;;;;9.58;5.28;;;;;;;6.43;100.00;98060.00;1748929;82;21186;-56
2021/05/08 04:46:11;;;;;;;13.88;6.53;;;;;;;6.42;100.00;98050.01;1748762;82;21158;-56
2021/05/08 04:48:41;;;;;;;10.15;6.28;;;;;;;6.39;100.00;98061.70;1748418;82;21323;-57
2021/05/08 04:51:10;;;;;;;10.05;5.75;;;;;;;6.38;100.00;98076.30;1748610;82;21166;-57
2021/05/08 04:53:39;;;;;;;7.17;4.80;;;;;;;6.37;100.00;98085.17;1748405;82;21173;-56
2021/05/08 04:56:09;;;;;;;8.30;5.67;;;;;;;6.38;100.00;98106.41;1748991;82;21594;-56
2021/05/08 04:58:39;;;;;;;8.25;5.67;;;;;;;6.34;100.00;98107.30;1748399;82;21173;-55
2021/05/08 05:01:10;;;;;;;11.43;5.72;;;;;;;6.36;100.00;98103.17;1748451;81;21178;-56
2021/05/08 05:03:40;;;;;;;8.75;5.30;;;;;;;6.37;100.00;98093.02;1748971;82;21554;-56
2021/05/08 05:06:10;;;;;;;7.95;4.80;;;;;;;6.36;100.00;98100.55;1748604;82;21146;-58
2021/05/08 05:08:40;;;;;;;8.98;5.33;;;;;;;6.36;100.00;98105.28;1751493;82;21122;-56
2021/05/08 05:11:10;;;;;;;9.38;5.78;;;;;;;6.32;100.00;98106.70;1754014;82;21193;-57
2021/05/08 05:13:40;;;;;;;8.98;5.78;;;;;;;6.32;100.00;98102.78;1754189;82;21146;-57
2021/05/08 05:16:10;;;;;;;8.45;5.22;;;;;;;6.36;100.00;98107.89;1754073;82;21170;-56
2021/05/08 05:18:39;;;;;;;10.98;6.25;;;;;;;6.44;100.00;98106.12;1754003;82;21201;-57
2021/05/08 05:21:09;;;;;;;11.85;7.08;;;;;;;6.54;100.00;98114.40;1753942;82;21173;-56
2021/05/08 05:23:39;;;;;;;10.15;6.12;;;;;;;6.62;100.00;98118.13;1753987;82;21205;-57
2021/05/08 05:26:08;;;;;;;11.90;6.50;;;;;;;6.72;100.00;98124.28;1753980;82;21181;-58
2021/05/08 05:28:37;;;;;;;9.43;5.42;;;;;;;6.74;100.00;98115.20;1753929;82;21169;-57
2021/05/08 05:31:07;;;;;;;9.00;6.12;;;;;;;6.74;100.00;98116.52;1754141;82;21134;-57
2021/05/08 05:33:36;;;;;;;9.23;6.08;;;;;;;6.77;100.00;98125.30;1754032;82;21186;-57
2021/05/08 05:36:07;;;;;;;8.23;5.87;;;;;;;6.80;100.00;98126.69;1754221;82;21189;-57
2021/05/08 05:38:36;;;;;;;7.72;5.35;;;;;;;6.88;100.00;98118.63;1754065;80;21186;-58
2021/05/08 05:41:05;;;;;;;9.80;6.10;;;;;;;7.00;98.99;98112.30;1753912;82;21174;-58
2021/05/08 05:43:35;;;;;;;8.50;5.95;;;;;;;7.08;97.83;98118.63;1753914;82;21181;-57
2021/05/08 05:46:05;;;;;;;9.88;5.45;;;;;;;7.19;98.21;98123.26;1754317;82;21236;-56
2021/05/08 05:48:36;;;;;;;;;;;;;;;7.36;97.45;98124.44;1756543;82;21145;-56
2021/05/08 05:51:07;;;;;;;9.25;5.37;;;;;;;7.57;96.91;98122.56;1754256;82;20424;-56
2021/05/08 05:53:37;;;;;;;8.13;5.05;;;;;;;7.79;95.34;98133.09;1754110;82;21186;-57
2021/05/08 05:56:06;;;;;;;8.33;5.50;;;;;;;7.97;93.27;98126.69;1754045;82;21174;-56
2021/05/08 05:58:36;;;;;;;9.93;5.72;;;;;;;8.17;92.92;98120.02;1753936;82;21177;-56
2021/05/08 06:01:07;;;;;;;7.25;5.03;;;;;;;8.34;91.10;98125.58;1754231;82;21190;-57
2021/05/08 06:03:36;;;;;;;7.42;5.25;;;;;;;8.40;87.53;98093.25;1754121;82;21162;-56
2021/05/08 06:06:05;;;;;;;6.30;4.78;;;;;;;8.36;86.43;98112.27;1753997;82;21170;-57
2021/05/08 06:08:35;;;;;;;8.33;4.80;;;;;;;8.36;86.78;98108.33;1751807;82;21190;-56
2021/05/08 06:11:05;;;;;;;9.05;4.92;;;;;;;8.37;85.89;98126.52;1748496;82;21194;-55
2021/05/08 06:13:35;;;;;;;8.95;5.53;;;;;;;8.41;86.91;98130.82;1748610;82;21296;-57
2021/05/08 06:16:08;;;;;;;7.45;5.10;;;;;;;8.51;87.92;98133.80;1748556;82;21173;-57
2021/05/08 06:18:37;;;;;;;9.13;5.55;;;;;;;8.67;86.94;98133.30;1748455;82;21122;-60
2021/05/08 06:21:08;;;;;;;7.45;4.92;;;;;;;8.76;85.81;98143.82;1748533;82;21122;-57
2021/05/08 06:23:38;;;;;;;6.42;4.70;;;;;;;8.92;86.13;98147.75;1748403;82;21181;-56
2021/05/08 06:26:07;;;;;;;6.35;4.60;;;;;;;9.14;82.99;98151.33;1748535;82;21166;-56
2021/05/08 06:28:37;;;;;;;7.62;4.83;;;;;;;9.22;80.83;98140.02;1748623;82;21158;-57
2021/05/08 06:31:07;;;;;;;9.55;4.67;;;;;;;9.32;81.15;98150.05;1748346;82;21170;-57
2021/05/08 06:33:36;;;;;;;6.70;4.55;;;;;;;9.45;81.03;98152.55;1748404;82;21236;-58
2021/05/08 06:36:06;;;;;;;8.35;4.50;;;;;;;9.54;80.07;98160.47;1748375;82;21173;-58
2021/05/08 06:38:36;;;;;;;7.62;4.35;;;;;;;9.52;79.49;98158.58;1748647;81;21207;-57
2021/05/08 06:41:05;;;;;;;8.48;4.50;;;;;;;9.38;78.05;98130.77;1748506;82;21174;-57
2021/05/08 06:43:35;;;;;;;6.33;4.12;;;;;;;9.15;78.09;98159.51;1748615;82;21138;-53
2021/05/08 06:46:04;;;;;;;6.17;4.35;;;;;;;8.91;77.11;98165.86;1748360;82;21192;-56
2021/05/08 06:48:34;;;;;;;5.85;4.22;;;;;;;8.63;78.24;98173.33;1748671;82;21122;-58
2021/05/08 06:51:06;;;;;;;8.95;4.67;;;;;;;8.41;79.17;98175.47;1748825;82;21539;-56
2021/05/08 06:53:36;;;;;;;10.08;3.87;;;;;;;8.24;79.48;98191.67;1748801;82;21593;-58
2021/05/08 06:56:06;;;;;;;7.33;4.20;;;;;;;8.17;80.40;98184.34;1748643;82;21173;-55
2021/05/08 06:58:35;;;;;;;6.83;3.72;;;;;;;8.08;80.98;98193.45;1748527;82;21335;-57
2021/05/08 07:01:04;;;;;;;6.25;3.90;;;;;;;7.95;80.98;98203.48;1748702;82;21753;-57
2021/05/08 07:03:35;;;;;;;7.50;3.85;;;;;;;7.84;80.92;98196.77;1748984;82;21634;-57
2021/05/08 07:06:05;;;;;;;5.25;3.83;;;;;;;7.70;80.40;98193.38;1748476;82;21177;-55
2021/05/08 07:08:34;;;;;;;4.92;3.70;;;;;;;7.59;81.65;98197.94;1750165;82;21177;-57
2021/05/08 07:11:04;;;;;;;4.75;3.42;;;;;;;7.50;82.33;98201.26;1754284;82;21178;-55
2021/05/08 07:13:34;;;;;;;5.10;3.73;;;;;;;7.44;83.35;98215.98;1754383;82;21126;-58
2021/05/08 07:16:04;;;;;;;5.70;3.98;;;;;;;7.42;84.35;98208.84;1754096;82;21173;-57
2021/05/08 07:18:34;;;;;;;4.78;3.60;;;;;;;7.44;84.67;98195.02;1754257;82;21154;-58
2021/05/08 07:21:04;;;;;;;4.03;3.50;;;;;;;7.50;83.98;98197.33;1754071;82;21315;-56
2021/05/08 07:23:34;;;;;;;6.17;3.70;;;;;;;7.59;84.80;98205.80;1754361;82;21157;-57
2021/05/08 07:26:03;;;;;;;7.25;3.90;;;;;;;7.76;84.67;98202.24;1754099;82;21407;-59
2021/05/08 07:28:32;;;;;;;6.10;4.20;;;;;;;7.97;84.99;98210.67;1754075;82;21166;-57
2021/05/08 07:31:03;;;;;;;6.40;4.10;;;;;;;8.31;85.50;98215.27;1754120;82;21193;-58
2021/05/08 07:33:33;;;;;;;6.12;4.33;;;;;;;8.71;84.11;98227.73;1754147;82;21205;-57
2021/05/08 07:36:02;;;;;;;6.75;4.60;;;;;;;8.98;81.77;98208.67;1754276;82;21130;-57
2021/05/08 07:38:31;;;;;;;6.37;4.25;;;;;;;9.12;78.80;98215.14;1754090;80;21315;-58
2021/05/08 07:41:01;;;;;;;5.58;4.50;;;;;;;9.15;78.35;98219.98;1754059;82;21138;-56
2021/05/08 07:43:30;;;;;;;7.15;4.58;;;;;;;9.12;77.72;98227.81;1754065;82;21177;-57
2021/05/08 07:46:00;;;;;;;5.17;4.10;;;;;;;9.01;77.40;98231.92;1754088;82;21196;-58
2021/05/08 07:48:30;;;;;;;6.60;4.20;;;;;;;8.89;76.96;98244.62;1754162;82;21623;-59
2021/05/08 07:51:00;;;;;;;6.28;4.10;;;;;;;8.76;77.49;98208.72;1754137;82;21174;-58
2021/05/08 07:53:30;;;;;;;6.53;4.42;;;;;;;8.55;79.40;98236.64;1754352;82;21173;-57
2021/05/08 07:55:59;;;;;;;8.43;4.58;;;;;;;8.27;82.15;98244.80;1754350;82;21170;-58
2021/05/08 07:58:29;;;;;;;11.63;4.63;;;;;;;8.01;81.77;98255.66;1754344;82;21150;-57
2021/05/08 08:00:59;;;;;;;7.97;3.98;;;;;;;7.78;85.87;98253.48;1754312;82;21185;-59
2021/05/08 08:03:28;;;;;;;10.35;4.20;;;;;;;7.70;86.51;98261.58;1754048;82;21177;-55
2021/05/08 08:05:58;;;;;;;5.08;2.83;;;;;;;7.64;88.25;98244.84;1753966;82;21165;-56
2021/05/08 08:08:28;;;;;;;4.75;2.67;;;;;;;7.58;85.82;98262.70;1754263;82;21173;-57
2021/05/08 08:10:58;;;;;;;4.35;2.50;;;;;;;7.57;86.04;98282.08;1754456;82;21566;-57
2021/05/08 08:13:27;;;;;;;2.72;1.98;;;;;;;7.70;84.59;98246.64;1754305;82;21197;-57
2021/05/08 08:15:57;;;;;;;2.90;1.70;;;;;;;7.80;84.27;98271.64;1754072;82;21177;-57
2021/05/08 08:18:27;;;;;;;6.22;2.20;;;;;;;7.96;83.11;98272.02;1754288;82;21190;-57
2021/05/08 08:20:57;;;;;;;4.90;2.70;;;;;;;8.21;82.96;98270.06;1754549;82;21292;-57
2021/05/08 08:23:26;;;;;;;4.28;2.42;;;;;;;8.40;83.29;98280.23;1754047;82;21879;-60
2021/05/08 08:25:55;;;;;;;1.72;1.62;;;;;;;8.36;80.88;98265.38;1754261;82;21177;-57
2021/05/08 08:28:26;;;;;;;2.12;1.92;;;;;;;8.24;80.62;98262.56;1754246;82;21198;-58
2021/05/08 08:30:55;;;;;;;1.65;1.50;;;;;;;8.15;78.79;98273.02;1754078;82;21186;-57
2021/05/08 08:33:25;;;;;;;3.58;1.92;;;;;;;8.10;79.79;98287.77;1754201;82;21170;-57
2021/05/08 08:35:54;;;;;;;3.42;2.22;;;;;;;8.12;79.61;98300.17;1754330;82;21189;-59
2021/05/08 08:38:23;;;;;;;2.45;2.00;;;;;;;7.98;80.08;98313.33;1754016;80;21203;-58
2021/05/08 08:40:53;;;;;;;3.00;2.30;;;;;;;7.80;81.87;98312.31;1754273;82;21173;-57
2021/05/08 08:43:23;;;;;;;2.70;2.20;;;;;;;7.73;83.54;98308.38;1754006;82;21173;-58
2021/05/08 08:45:52;;;;;;;3.45;2.15;;;;;;;7.86;83.88;98316.27;1754066;82;21182;-57
2021/05/08 08:48:24;;;;;;;7.03;4.30;;;;;;;7.89;80.95;98318.98;1754086;82;21181;-58
2021/05/08 08:50:53;;;;;;;4.53;2.17;;;;;;;7.83;80.90;98320.59;1754025;82;21178;-56
2021/05/08 08:53:23;;;;;;;5.83;2.22;;;;;;;7.79;80.60;98316.75;1754132;82;21206;-58
2021/05/08 08:55:54;;;;;;;2.83;2.27;;;;;;;7.76;80.56;98329.48;1754223;82;21188;-56
2021/05/08 08:58:32;;;;;;;4.85;2.30;;;;;;;7.79;81.49;98332.50;1754091;82;21163;-56
2021/05/08 09:00:59;;;;;;;2.90;1.50;;;;;;;7.79;81.85;98328.56;1753967;82;21609;-57
2021/05/08 09:03:28;;;;;;;1.75;1.65;;;;;;;7.80;81.82;98338.55;1754019;82;21178;-60
2021/05/08 09:05:59;;;;;;;1.72;1.17;;;;;;;7.84;81.63;98335.84;1754262;82;21177;-58
2021/05/08 09:08:31;;;;;;;2.33;1.40;;;;;;;7.91;81.45;98338.78;1754159;82;21162;-58
2021/05/08 09:11:23;;;;;;;4.47;1.70;;;;;;;8.03;81.60;98334.20;1753981;82;21194;-55
2021/05/08 09:14:18;;;;;;;1.65;1.40;;;;;;;8.33;81.45;98337.20;1754017;82;21193;-58
2021/05/08 09:17:13;;;;;;;2.02;1.60;;;;;;;8.67;81.06;98346.13;1753948;82;21147;-55
2021/05/08 09:19:49;;;;;;;2.95;2.17;;;;;;;8.82;77.74;98358.19;1754193;82;21177;-59
2021/05/08 09:22:38;;;;;;;6.17;2.85;;;;;;;8.99;76.79;98358.81;1753559;82;21189;-59
2021/05/08 09:25:15;;;;;;;5.37;3.42;;;;;;;9.04;76.55;98341.91;1754149;82;21161;-56
2021/05/08 09:27:51;;;;;;;5.40;4.03;;;;;;;9.16;76.33;98367.53;1754029;82;21189;-56
2021/05/08 09:30:29;;;;;;;7.87;4.30;;;;;;;9.17;74.72;98375.20;1754185;82;21185;-56
2021/05/08 09:33:01;;;;;;;7.37;4.25;;;;;;;8.89;75.40;98382.61;1753779;82;21142;-58
2021/05/08 09:35:35;;;;;;;5.17;4.00;;;;;;;8.77;76.72;98374.09;1754141;82;21182;-58
2021/05/08 09:38:15;;;;;;;6.42;3.85;;;;;;;8.64;76.18;98376.73;1753963;80;21203;-59
2021/05/08 09:40:46;;;;;;;8.05;4.08;;;;;;;8.43;76.50;98375.19;1754035;82;21303;-56
2021/05/08 09:43:18;;;;;;;6.67;4.10;;;;;;;8.30;78.14;98388.80;1754291;82;21169;-58
2021/05/08 09:45:51;;;;;;;9.90;4.85;;;;;;;8.12;77.51;98374.99;1754217;82;21162;-57
2021/05/08 09:48:33;;;;;;;10.15;4.90;;;;;;;7.86;79.36;98395.00;1754146;82;21648;-57
2021/05/08 09:51:26;;;;;;;9.63;4.78;;;;;;;7.70;79.71;98395.38;1753950;82;21609;-56
2021/05/08 09:54:03;;;;;;;7.67;4.53;;;;;;;7.73;80.93;98404.95;1754058;82;21134;-55
2021/05/08 09:56:41;;;;;;;3.70;3.10;;;;;;;7.91;80.82;98396.52;1751728;82;21205;-56
2021/05/08 09:59:40;;;;;;;3.20;2.90;;;;;;;8.01;79.36;98400.03;1754133;82;21186;-58
2021/05/08 10:02:12;;;;;;;5.15;3.20;;;;;;;7.98;77.79;98396.00;1754001;82;21209;-56
2021/05/08 10:04:45;;;;;;;3.05;2.27;;;;;;;7.92;79.71;98415.69;1750338;82;21154;-56
2021/05/08 10:07:24;;;;;;;3.75;2.75;;;;;;;7.77;79.64;98436.05;1753981;82;21150;-56
2021/05/08 10:10:00;;;;;;;5.17;3.08;;;;;;;7.55;83.19;98435.40;1753954;82;21173;-57
2021/05/08 10:12:30;;;;;;;5.47;3.62;;;;;;;7.45;85.72;98445.78;1754147;82;21158;-56
2021/05/08 10:15:00;;;;;;;4.42;3.05;;;;;;;7.51;85.60;98455.95;1754203;82;21170;-58
2021/05/08 10:17:30;;;;;;;5.72;2.95;;;;;;;7.69;82.16;98397.20;1753934;82;21202;-56
2021/05/08 10:20:09;;;;;;;4.58;3.33;;;;;;;7.86;77.65;98454.55;1754092;82;21329;-55
2021/05/08 10:22:50;;;;;;;6.28;3.70;;;;;;;8.02;79.25;98450.20;1754023;82;21597;-57
2021/05/08 10:25:20;;;;;;;7.05;3.67;;;;;;;8.31;78.85;98456.06;1754189;82;21161;-58
2021/05/08 10:27:49;;;;;;;9.58;4.62;;;;;;;8.57;77.76;98449.52;1754051;82;21150;-57
2021/05/08 10:30:35;;;;;;;8.18;3.80;;;;;;;8.66;73.97;98454.03;1754081;82;21173;-57
2021/05/08 10:33:14;;;;;;;6.37;4.00;;;;;;;8.51;74.25;98475.30;1753141;82;21613;-58
2021/05/08 10:35:47;;;;;;;9.93;3.77;;;;;;;8.29;72.99;98473.85;1754173;82;21165;-57
2021/05/08 10:38:23;;;;;;;7.67;3.77;;;;;;;8.15;74.03;98486.18;1754137;80;21226;-56
2021/05/08 10:41:05;;;;;;;6.80;3.62;;;;;;;8.05;74.43;98455.57;1754170;82;21198;-56
2021/05/08 10:43:52;;;;;;;7.10;3.77;;;;;;;8.01;75.81;98478.78;1754230;82;21554;-57
2021/05/08 10:46:27;;;;;;;5.78;3.50;;;;;;;8.19;74.86;98467.68;1754051;82;21154;-58
2021/05/08 10:49:14;;;;;;;8.15;3.70;;;;;;;8.55;75.09;98467.31;1754034;82;21161;-54
2021/05/08 10:51:57;;;;;;;7.17;3.60;;;;;;;8.75;73.57;98483.04;1754019;82;21162;-56
2021/05/08 10:54:45;;;;;;;7.12;3.92;;;;;;;8.78;75.65;98486.08;1754324;82;21122;-55
2021/05/08 10:57:24;;;;;;;6.60;3.95;;;;;;;8.72;79.70;98485.58;1739907;82;21169;-56
2021/05/08 11:00:09;;;;;;;7.53;4.30;;;;;;;8.65;78.84;98479.51;1754398;82;21165;-58
2021/05/08 11:02:48;;;;;;;6.87;3.47;;;;;;;8.56;80.27;98497.83;1754164;82;21174;-58
2021/05/08 11:05:34;;;;;;;6.90;4.47;;;;;;;8.58;81.55;98493.67;1751397;82;21182;-56
2021/05/08 11:08:31;;;;;;;5.97;3.98;;;;;;;8.71;83.54;98489.70;1754285;82;21154;-56
2021/05/08 11:11:07;;;;;;;5.25;3.70;;;;;;;8.82;82.51;98485.65;1753892;81;21664;-57
2021/05/08 11:13:47;;;;;;;6.55;3.98;;;;;;;8.97;81.52;98471.78;1754148;82;21161;-55
2021/05/08 11:16:27;;;;;;;5.90;3.92;;;;;;;9.09;80.41;98484.58;1754318;82;21154;-58
2021/05/08 11:19:00;;;;;;;4.25;3.45;;;;;;;9.17;72.86;98484.34;1754101;82;21186;-54
2021/05/08 11:21:35;;;;;;;4.83;3.22;;;;;;;9.07;74.55;98496.33;1754089;82;21182;-57
2021/05/08 11:24:05;;;;;;;5.12;3.60;;;;;;;8.86;75.46;98506.58;1754389;82;21573;-58
2021/05/08 11:26:41;;;;;;;4.53;3.17;;;;;;;8.61;77.70;98515.61;1754408;82;21605;-57
2021/05/08 11:29:18;;;;;;;6.05;3.25;;;;;;;8.38;78.63;98509.45;1754218;82;21158;-56
2021/05/08 11:31:52;;;;;;;4.53;3.05;;;;;;;8.08;78.02;98528.16;1754086;82;21272;-58
2021/05/08 11:34:35;;;;;;;5.65;3.05;;;;;;;7.71;78.85;98522.92;1754101;82;21162;-58
2021/05/08 11:37:10;;;;;;;6.62;3.15;;;;;;;7.39;77.41;98521.28;1754343;80;21597;-58
2021/05/08 11:39:47;;;;;;;7.40;3.30;;;;;;;7.26;81.95;98531.72;1754196;82;21158;-57
2021/05/08 11:42:18;;;;;;;6.58;3.52;;;;;;;7.25;84.70;98534.54;1754451;82;21227;-57
2021/05/08 11:44:55;;;;;;;6.65;3.50;;;;;;;7.32;84.83;98521.76;1754328;82;21166;-58
2021/05/08 11:47:33;;;;;;;7.42;3.45;;;;;;;7.31;83.90;98535.88;1754194;82;21597;-57
2021/05/08 11:50:14;;;;;;;12.35;6.20;;;;;;;7.24;84.78;98532.42;1754140;82;21190;-57
2021/05/08 11:52:49;;;;;;;25.85;11.90;;;;;;;7.31;87.80;98537.19;1754343;82;21158;-56
2021/05/08 11:55:23;;;;;;;11.68;5.05;;;;;;;7.54;90.18;98540.02;1754082;82;21279;-57
2021/05/08 11:57:57;;;;;;;7.37;3.92;;;;;;;7.80;89.79;98532.73;1754019;82;21363;-57